Aérodrome :
LOGIN :

S'inscrire | Disclaimer

   EN    FR    IT 

 










Légende :    VFR   VFR Marginal   IFR   IFR Intensif   IFR Très Intensif
Visi : 
Plafond : 
>= 8 km
>= 3000ft
5 à 8 km
1000 à 3000 ft
1500m à 5 km
500 à 1000 ft
800 à 1500m
200 à 500 ft
< 800m
< 200 ft
Symboles :   Orages  Brouillard  Fortes neiges  Fortes précipitations  Vent > 20 kt
SIGMETs :   Divers  Orages  Givrage  Turbulence  Onde Orograph.  Cendres Volcan.






- Altitude de l'aérodrome : 885 ft
- Code IATA : BAS


LFSB - Bale-Mulhouse

DERNIER METAR :
  • 281300Z AUTO 36011KT 330V030 9999 FEW020/// BKN072/// 24/09 Q1026 TEMPO FEW060TCU

METARs EXPIRÉS :
  • 281230Z AUTO 01010KT 9999 NCD 24/09 Q1026 TEMPO FEW060TCU
  • 281200Z AUTO 35009KT 320V030 9999 NCD 24/12 Q1026 TEMPO FEW060TCU
  • 281130Z AUTO 01008KT 340V050 9999 FEW054 23/11 Q1027 TEMPO FEW050TCU
  • 281100Z AUTO 34009KT 300V020 CAVOK 22/10 Q1027 NOSIG
  • 281030Z AUTO 01007KT 320V060 CAVOK 22/10 Q1027 NOSIG

TAF TAF LFSB
Valide du 28 à 12h jusqu'au 29 à 12h UTC


281100Z 2812/2912 36010KT 9999 FEW053
PROB40
TEMPO 2812/2817 36012G22KT FEW060TCU
BECMG 2821/2823 32005KT
BECMG 2907/2909 09010G20KT
Météo : +33 3 89 90 31 11



MET'MAP, la Météo Aéronautique d'un coup d'oeil ! - Copyright ORBIFLY Décembre 2007 - Disclaimer

ORBIFLY MET'MAP TEAM :

Programmation & Développement : Alexandra Zaïnal
Sur une idée originale de : Baudouin d'Aumeries
Assistance à la programmation : Marc-Olivier Méhu
Soutien technique & logistique : Manuel Goepfert

Contact : metmap@orbifly.com




SOURCES & CREDITS :

   NOAA